sensor_id;sensor_type;location;lat;lon;timestamp;P1;durP1;ratioP1;P2;durP2;ratioP2
69030;SDS011;56083;48.774;8.942;2023-07-31T00:00:28;8.60;;;1.60;;
69030;SDS011;56083;48.774;8.942;2023-07-31T00:02:53;5.03;;;1.35;;
69030;SDS011;56083;48.774;8.942;2023-07-31T00:05:19;5.35;;;1.60;;
69030;SDS011;56083;48.774;8.942;2023-07-31T00:07:45;5.40;;;1.80;;
69030;SDS011;56083;48.774;8.942;2023-07-31T00:10:11;6.15;;;1.60;;
69030;SDS011;56083;48.774;8.942;2023-07-31T00:12:41;5.03;;;1.70;;
69030;SDS011;56083;48.774;8.942;2023-07-31T00:15:08;5.07;;;1.58;;
69030;SDS011;56083;48.774;8.942;2023-07-31T00:17:34;4.20;;;1.70;;
69030;SDS011;56083;48.774;8.942;2023-07-31T00:20:00;6.63;;;1.70;;
69030;SDS011;56083;48.774;8.942;2023-07-31T00:22:25;6.57;;;1.70;;
69030;SDS011;56083;48.774;8.942;2023-07-31T00:24:53;10.63;;;2.25;;
69030;SDS011;56083;48.774;8.942;2023-07-31T00:27:19;8.90;;;1.77;;
69030;SDS011;56083;48.774;8.942;2023-07-31T00:29:45;6.65;;;1.77;;
69030;SDS011;56083;48.774;8.942;2023-07-31T00:32:10;10.20;;;1.90;;
69030;SDS011;56083;48.774;8.942;2023-07-31T00:34:36;6.95;;;1.80;;
69030;SDS011;56083;48.774;8.942;2023-07-31T00:37:02;7.22;;;1.65;;
69030;SDS011;56083;48.774;8.942;2023-07-31T00:39:29;6.82;;;2.08;;
69030;SDS011;56083;48.774;8.942;2023-07-31T00:41:55;7.57;;;1.67;;
69030;SDS011;56083;48.774;8.942;2023-07-31T00:44:21;13.45;;;1.77;;
69030;SDS011;56083;48.774;8.942;2023-07-31T00:46:47;6.40;;;2.00;;
69030;SDS011;56083;48.774;8.942;2023-07-31T00:49:13;4.78;;;1.80;;
69030;SDS011;56083;48.774;8.942;2023-07-31T00:51:38;6.05;;;1.90;;
69030;SDS011;56083;48.774;8.942;2023-07-31T00:54:04;7.68;;;2.10;;
69030;SDS011;56083;48.774;8.942;2023-07-31T00:56:31;6.57;;;1.90;;
69030;SDS011;56083;48.774;8.942;2023-07-31T00:58:57;6.68;;;1.98;;
69030;SDS011;56083;48.774;8.942;2023-07-31T01:01:22;4.90;;;1.77;;
69030;SDS011;56083;48.774;8.942;2023-07-31T01:03:48;6.85;;;2.00;;
69030;SDS011;56083;48.774;8.942;2023-07-31T01:07:19;8.32;;;2.03;;
69030;SDS011;56083;48.774;8.942;2023-07-31T01:09:29;5.22;;;2.00;;
69030;SDS011;56083;48.774;8.942;2023-07-31T01:12:15;6.07;;;1.90;;
69030;SDS011;56083;48.774;8.942;2023-07-31T01:14:52;5.20;;;1.85;;
69030;SDS011;56083;48.774;8.942;2023-07-31T01:17:36;7.22;;;2.33;;
69030;SDS011;56083;48.774;8.942;2023-07-31T01:20:03;7.45;;;1.65;;
69030;SDS011;56083;48.774;8.942;2023-07-31T01:28:19;8.82;;;2.20;;
69030;SDS011;56083;48.774;8.942;2023-07-31T01:30:50;10.38;;;1.98;;
69030;SDS011;56083;48.774;8.942;2023-07-31T01:33:16;9.05;;;1.77;;
69030;SDS011;56083;48.774;8.942;2023-07-31T01:35:43;5.55;;;1.63;;
69030;SDS011;56083;48.774;8.942;2023-07-31T01:38:11;9.93;;;2.15;;
69030;SDS011;56083;48.774;8.942;2023-07-31T01:40:37;7.20;;;1.83;;
69030;SDS011;56083;48.774;8.942;2023-07-31T01:43:02;8.55;;;2.05;;
69030;SDS011;56083;48.774;8.942;2023-07-31T01:45:28;7.13;;;2.17;;
69030;SDS011;56083;48.774;8.942;2023-07-31T01:47:53;5.45;;;1.67;;
69030;SDS011;56083;48.774;8.942;2023-07-31T01:50:19;7.82;;;1.95;;
69030;SDS011;56083;48.774;8.942;2023-07-31T01:52:44;6.15;;;1.95;;
69030;SDS011;56083;48.774;8.942;2023-07-31T01:55:10;8.23;;;2.13;;
69030;SDS011;56083;48.774;8.942;2023-07-31T01:57:36;6.15;;;2.30;;
69030;SDS011;56083;48.774;8.942;2023-07-31T02:00:02;5.65;;;2.00;;
69030;SDS011;56083;48.774;8.942;2023-07-31T02:02:29;10.10;;;2.03;;
69030;SDS011;56083;48.774;8.942;2023-07-31T02:04:54;4.20;;;1.80;;
69030;SDS011;56083;48.774;8.942;2023-07-31T02:07:20;7.60;;;1.88;;
69030;SDS011;56083;48.774;8.942;2023-07-31T02:09:45;7.43;;;1.90;;
69030;SDS011;56083;48.774;8.942;2023-07-31T02:12:12;4.50;;;1.98;;
69030;SDS011;56083;48.774;8.942;2023-07-31T02:14:39;15.52;;;2.33;;
69030;SDS011;56083;48.774;8.942;2023-07-31T02:17:05;9.95;;;2.00;;
69030;SDS011;56083;48.774;8.942;2023-07-31T02:19:31;6.75;;;2.28;;
69030;SDS011;56083;48.774;8.942;2023-07-31T02:21:56;8.63;;;1.92;;
69030;SDS011;56083;48.774;8.942;2023-07-31T02:24:22;9.07;;;2.40;;
69030;SDS011;56083;48.774;8.942;2023-07-31T02:26:48;9.00;;;2.40;;
69030;SDS011;56083;48.774;8.942;2023-07-31T02:29:14;9.88;;;2.15;;
69030;SDS011;56083;48.774;8.942;2023-07-31T02:31:40;7.68;;;2.17;;
69030;SDS011;56083;48.774;8.942;2023-07-31T02:34:05;8.48;;;2.20;;
69030;SDS011;56083;48.774;8.942;2023-07-31T02:36:31;11.30;;;2.20;;
69030;SDS011;56083;48.774;8.942;2023-07-31T02:38:56;7.68;;;1.73;;
69030;SDS011;56083;48.774;8.942;2023-07-31T02:41:22;5.93;;;2.13;;
69030;SDS011;56083;48.774;8.942;2023-07-31T02:43:47;10.70;;;2.00;;
69030;SDS011;56083;48.774;8.942;2023-07-31T02:46:13;6.20;;;1.90;;
69030;SDS011;56083;48.774;8.942;2023-07-31T02:48:39;8.43;;;2.20;;
69030;SDS011;56083;48.774;8.942;2023-07-31T02:51:04;10.45;;;2.30;;
69030;SDS011;56083;48.774;8.942;2023-07-31T02:53:30;6.55;;;2.10;;
69030;SDS011;56083;48.774;8.942;2023-07-31T02:55:55;9.20;;;2.78;;
69030;SDS011;56083;48.774;8.942;2023-07-31T02:58:21;9.93;;;2.47;;
69030;SDS011;56083;48.774;8.942;2023-07-31T03:00:46;9.55;;;2.40;;
69030;SDS011;56083;48.774;8.942;2023-07-31T03:03:12;5.05;;;2.10;;
69030;SDS011;56083;48.774;8.942;2023-07-31T03:05:38;6.80;;;1.92;;
69030;SDS011;56083;48.774;8.942;2023-07-31T03:08:03;7.88;;;2.38;;
69030;SDS011;56083;48.774;8.942;2023-07-31T03:10:29;5.70;;;2.15;;
69030;SDS011;56083;48.774;8.942;2023-07-31T03:12:54;6.28;;;2.20;;
69030;SDS011;56083;48.774;8.942;2023-07-31T03:15:20;8.45;;;2.33;;
69030;SDS011;56083;48.774;8.942;2023-07-31T03:17:45;7.13;;;1.88;;
69030;SDS011;56083;48.774;8.942;2023-07-31T03:20:11;10.13;;;1.98;;
69030;SDS011;56083;48.774;8.942;2023-07-31T03:22:37;8.65;;;1.92;;
69030;SDS011;56083;48.774;8.942;2023-07-31T03:25:03;7.22;;;2.00;;
69030;SDS011;56083;48.774;8.942;2023-07-31T03:27:29;8.13;;;2.28;;
69030;SDS011;56083;48.774;8.942;2023-07-31T03:29:54;9.98;;;2.30;;
69030;SDS011;56083;48.774;8.942;2023-07-31T03:32:20;9.38;;;2.30;;
69030;SDS011;56083;48.774;8.942;2023-07-31T03:34:46;6.45;;;1.85;;
69030;SDS011;56083;48.774;8.942;2023-07-31T03:37:11;6.20;;;1.98;;
69030;SDS011;56083;48.774;8.942;2023-07-31T03:39:37;10.45;;;2.22;;
69030;SDS011;56083;48.774;8.942;2023-07-31T03:42:03;7.57;;;2.22;;
69030;SDS011;56083;48.774;8.942;2023-07-31T03:44:29;9.60;;;2.45;;
69030;SDS011;56083;48.774;8.942;2023-07-31T03:46:54;6.13;;;2.03;;
69030;SDS011;56083;48.774;8.942;2023-07-31T03:49:20;8.00;;;1.92;;
69030;SDS011;56083;48.774;8.942;2023-07-31T03:51:45;11.25;;;1.98;;
69030;SDS011;56083;48.774;8.942;2023-07-31T03:54:11;8.98;;;1.90;;
69030;SDS011;56083;48.774;8.942;2023-07-31T03:56:38;8.82;;;2.05;;
69030;SDS011;56083;48.774;8.942;2023-07-31T03:59:04;7.88;;;2.20;;
69030;SDS011;56083;48.774;8.942;2023-07-31T04:01:29;8.90;;;2.30;;
69030;SDS011;56083;48.774;8.942;2023-07-31T04:03:55;5.63;;;1.60;;
69030;SDS011;56083;48.774;8.942;2023-07-31T04:06:21;8.48;;;2.00;;
69030;SDS011;56083;48.774;8.942;2023-07-31T04:08:46;8.85;;;2.15;;
69030;SDS011;56083;48.774;8.942;2023-07-31T04:11:12;4.13;;;1.52;;
69030;SDS011;56083;48.774;8.942;2023-07-31T04:13:39;7.78;;;1.95;;
69030;SDS011;56083;48.774;8.942;2023-07-31T04:16:04;8.80;;;2.25;;
69030;SDS011;56083;48.774;8.942;2023-07-31T04:18:30;6.20;;;2.00;;
69030;SDS011;56083;48.774;8.942;2023-07-31T04:20:57;7.30;;;1.75;;
69030;SDS011;56083;48.774;8.942;2023-07-31T04:23:27;6.82;;;2.05;;
69030;SDS011;56083;48.774;8.942;2023-07-31T04:25:53;6.60;;;1.92;;
69030;SDS011;56083;48.774;8.942;2023-07-31T04:28:18;6.07;;;1.83;;
69030;SDS011;56083;48.774;8.942;2023-07-31T04:30:44;9.73;;;1.80;;
69030;SDS011;56083;48.774;8.942;2023-07-31T04:33:10;9.02;;;2.30;;
69030;SDS011;56083;48.774;8.942;2023-07-31T04:35:35;6.53;;;2.10;;
69030;SDS011;56083;48.774;8.942;2023-07-31T04:38:01;7.43;;;1.73;;
69030;SDS011;56083;48.774;8.942;2023-07-31T04:40:27;5.45;;;1.90;;
69030;SDS011;56083;48.774;8.942;2023-07-31T04:42:52;3.95;;;1.60;;
69030;SDS011;56083;48.774;8.942;2023-07-31T04:45:18;6.35;;;1.88;;
69030;SDS011;56083;48.774;8.942;2023-07-31T04:47:44;6.30;;;1.90;;
69030;SDS011;56083;48.774;8.942;2023-07-31T04:50:09;8.68;;;1.95;;
69030;SDS011;56083;48.774;8.942;2023-07-31T04:52:35;6.72;;;1.90;;
69030;SDS011;56083;48.774;8.942;2023-07-31T04:55:00;8.95;;;2.40;;
69030;SDS011;56083;48.774;8.942;2023-07-31T04:57:26;6.35;;;1.98;;
69030;SDS011;56083;48.774;8.942;2023-07-31T04:59:52;6.47;;;2.25;;
69030;SDS011;56083;48.774;8.942;2023-07-31T05:02:17;10.90;;;1.83;;
69030;SDS011;56083;48.774;8.942;2023-07-31T05:04:43;5.28;;;1.90;;
69030;SDS011;56083;48.774;8.942;2023-07-31T05:07:08;8.80;;;1.80;;
69030;SDS011;56083;48.774;8.942;2023-07-31T05:09:34;7.13;;;2.22;;
69030;SDS011;56083;48.774;8.942;2023-07-31T05:12:00;6.35;;;1.92;;
69030;SDS011;56083;48.774;8.942;2023-07-31T05:14:25;6.82;;;1.75;;
69030;SDS011;56083;48.774;8.942;2023-07-31T05:16:51;7.63;;;1.90;;
69030;SDS011;56083;48.774;8.942;2023-07-31T05:19:17;7.75;;;2.10;;
69030;SDS011;56083;48.774;8.942;2023-07-31T05:21:43;6.20;;;1.98;;
69030;SDS011;56083;48.774;8.942;2023-07-31T05:24:09;6.55;;;2.08;;
69030;SDS011;56083;48.774;8.942;2023-07-31T05:26:35;6.07;;;1.98;;
69030;SDS011;56083;48.774;8.942;2023-07-31T05:29:01;8.18;;;1.88;;
69030;SDS011;56083;48.774;8.942;2023-07-31T05:31:26;10.68;;;2.20;;
69030;SDS011;56083;48.774;8.942;2023-07-31T05:33:52;7.70;;;2.30;;
69030;SDS011;56083;48.774;8.942;2023-07-31T05:36:18;5.75;;;1.80;;
69030;SDS011;56083;48.774;8.942;2023-07-31T05:38:43;5.70;;;1.80;;
69030;SDS011;56083;48.774;8.942;2023-07-31T05:41:10;6.07;;;2.03;;
69030;SDS011;56083;48.774;8.942;2023-07-31T05:43:37;7.72;;;2.08;;
69030;SDS011;56083;48.774;8.942;2023-07-31T05:46:02;11.45;;;2.25;;
69030;SDS011;56083;48.774;8.942;2023-07-31T05:48:28;5.50;;;2.03;;
69030;SDS011;56083;48.774;8.942;2023-07-31T05:50:54;7.30;;;2.30;;
69030;SDS011;56083;48.774;8.942;2023-07-31T05:53:19;13.00;;;2.63;;
69030;SDS011;56083;48.774;8.942;2023-07-31T05:55:45;8.70;;;2.15;;
69030;SDS011;56083;48.774;8.942;2023-07-31T05:58:10;6.85;;;2.20;;
69030;SDS011;56083;48.774;8.942;2023-07-31T06:00:36;6.40;;;2.05;;
69030;SDS011;56083;48.774;8.942;2023-07-31T06:03:02;7.25;;;2.10;;
69030;SDS011;56083;48.774;8.942;2023-07-31T06:05:27;5.28;;;1.98;;
69030;SDS011;56083;48.774;8.942;2023-07-31T06:07:55;7.53;;;1.85;;
69030;SDS011;56083;48.774;8.942;2023-07-31T06:10:20;6.30;;;1.90;;
69030;SDS011;56083;48.774;8.942;2023-07-31T06:12:46;6.70;;;1.85;;
69030;SDS011;56083;48.774;8.942;2023-07-31T06:15:12;5.40;;;1.70;;
69030;SDS011;56083;48.774;8.942;2023-07-31T06:17:38;7.72;;;2.08;;
69030;SDS011;56083;48.774;8.942;2023-07-31T06:20:03;7.38;;;1.55;;
69030;SDS011;56083;48.774;8.942;2023-07-31T06:22:31;10.93;;;2.25;;
69030;SDS011;56083;48.774;8.942;2023-07-31T06:24:57;7.32;;;1.60;;
69030;SDS011;56083;48.774;8.942;2023-07-31T06:27:23;7.93;;;2.20;;
69030;SDS011;56083;48.774;8.942;2023-07-31T06:29:48;9.57;;;2.00;;
69030;SDS011;56083;48.774;8.942;2023-07-31T06:32:14;7.13;;;1.98;;
69030;SDS011;56083;48.774;8.942;2023-07-31T06:34:39;5.28;;;1.70;;
69030;SDS011;56083;48.774;8.942;2023-07-31T06:37:05;9.82;;;2.00;;
69030;SDS011;56083;48.774;8.942;2023-07-31T06:39:31;9.18;;;2.00;;
69030;SDS011;56083;48.774;8.942;2023-07-31T06:41:56;7.60;;;1.80;;
69030;SDS011;56083;48.774;8.942;2023-07-31T06:44:22;6.05;;;1.90;;
69030;SDS011;56083;48.774;8.942;2023-07-31T06:46:48;6.88;;;2.05;;
69030;SDS011;56083;48.774;8.942;2023-07-31T06:49:13;5.47;;;1.88;;
69030;SDS011;56083;48.774;8.942;2023-07-31T06:51:40;7.47;;;2.00;;
69030;SDS011;56083;48.774;8.942;2023-07-31T06:54:08;4.85;;;2.00;;
69030;SDS011;56083;48.774;8.942;2023-07-31T06:56:33;8.75;;;2.40;;
69030;SDS011;56083;48.774;8.942;2023-07-31T06:58:59;10.02;;;1.92;;
69030;SDS011;56083;48.774;8.942;2023-07-31T07:01:25;7.90;;;1.83;;
69030;SDS011;56083;48.774;8.942;2023-07-31T07:03:50;7.40;;;2.00;;
69030;SDS011;56083;48.774;8.942;2023-07-31T07:06:19;11.38;;;2.20;;
69030;SDS011;56083;48.774;8.942;2023-07-31T07:08:45;7.15;;;2.00;;
69030;SDS011;56083;48.774;8.942;2023-07-31T07:11:11;4.18;;;1.65;;
69030;SDS011;56083;48.774;8.942;2023-07-31T07:13:36;8.43;;;2.20;;
69030;SDS011;56083;48.774;8.942;2023-07-31T07:16:02;5.93;;;2.10;;
69030;SDS011;56083;48.774;8.942;2023-07-31T07:18:28;6.57;;;1.90;;
69030;SDS011;56083;48.774;8.942;2023-07-31T07:20:53;7.32;;;2.00;;
69030;SDS011;56083;48.774;8.942;2023-07-31T07:23:20;10.00;;;2.50;;
69030;SDS011;56083;48.774;8.942;2023-07-31T07:25:46;4.75;;;1.70;;
69030;SDS011;56083;48.774;8.942;2023-07-31T07:28:12;4.82;;;1.90;;
69030;SDS011;56083;48.774;8.942;2023-07-31T07:30:39;6.43;;;1.65;;
69030;SDS011;56083;48.774;8.942;2023-07-31T07:33:05;4.60;;;1.80;;
69030;SDS011;56083;48.774;8.942;2023-07-31T07:35:34;9.18;;;1.90;;
69030;SDS011;56083;48.774;8.942;2023-07-31T07:38:01;6.60;;;1.73;;
69030;SDS011;56083;48.774;8.942;2023-07-31T07:40:27;7.05;;;2.15;;
69030;SDS011;56083;48.774;8.942;2023-07-31T07:42:53;6.72;;;2.13;;
69030;SDS011;56083;48.774;8.942;2023-07-31T07:45:19;6.50;;;1.98;;
69030;SDS011;56083;48.774;8.942;2023-07-31T07:47:44;8.15;;;2.20;;
69030;SDS011;56083;48.774;8.942;2023-07-31T07:50:10;6.70;;;2.00;;
69030;SDS011;56083;48.774;8.942;2023-07-31T07:52:36;8.68;;;2.10;;
69030;SDS011;56083;48.774;8.942;2023-07-31T07:55:01;8.73;;;2.10;;
69030;SDS011;56083;48.774;8.942;2023-07-31T07:57:28;8.63;;;1.92;;
69030;SDS011;56083;48.774;8.942;2023-07-31T07:59:54;6.78;;;2.33;;
69030;SDS011;56083;48.774;8.942;2023-07-31T08:02:20;6.75;;;2.63;;
69030;SDS011;56083;48.774;8.942;2023-07-31T08:04:45;8.57;;;2.20;;
69030;SDS011;56083;48.774;8.942;2023-07-31T08:07:11;8.95;;;2.35;;
69030;SDS011;56083;48.774;8.942;2023-07-31T08:09:37;10.45;;;2.40;;
69030;SDS011;56083;48.774;8.942;2023-07-31T08:12:03;11.18;;;2.45;;
69030;SDS011;56083;48.774;8.942;2023-07-31T08:14:29;7.35;;;2.25;;
69030;SDS011;56083;48.774;8.942;2023-07-31T08:16:55;8.15;;;2.20;;
69030;SDS011;56083;48.774;8.942;2023-07-31T08:19:21;8.45;;;2.17;;
69030;SDS011;56083;48.774;8.942;2023-07-31T08:21:46;8.73;;;2.50;;
69030;SDS011;56083;48.774;8.942;2023-07-31T08:24:12;6.13;;;2.08;;
69030;SDS011;56083;48.774;8.942;2023-07-31T08:26:38;6.13;;;1.92;;
69030;SDS011;56083;48.774;8.942;2023-07-31T08:29:03;6.45;;;2.25;;
69030;SDS011;56083;48.774;8.942;2023-07-31T08:31:29;9.38;;;2.20;;
69030;SDS011;56083;48.774;8.942;2023-07-31T08:33:55;9.02;;;2.28;;
69030;SDS011;56083;48.774;8.942;2023-07-31T08:36:21;7.65;;;2.45;;
69030;SDS011;56083;48.774;8.942;2023-07-31T08:38:47;7.68;;;2.10;;
69030;SDS011;56083;48.774;8.942;2023-07-31T08:41:12;9.30;;;2.10;;
69030;SDS011;56083;48.774;8.942;2023-07-31T08:43:38;7.47;;;2.20;;
69030;SDS011;56083;48.774;8.942;2023-07-31T08:46:04;7.90;;;2.55;;
69030;SDS011;56083;48.774;8.942;2023-07-31T08:48:31;5.65;;;2.33;;
69030;SDS011;56083;48.774;8.942;2023-07-31T08:50:58;6.28;;;2.40;;
69030;SDS011;56083;48.774;8.942;2023-07-31T08:53:24;6.65;;;2.45;;
69030;SDS011;56083;48.774;8.942;2023-07-31T08:55:50;7.20;;;2.70;;
69030;SDS011;56083;48.774;8.942;2023-07-31T08:58:19;9.45;;;2.55;;
69030;SDS011;56083;48.774;8.942;2023-07-31T09:00:45;8.85;;;2.35;;
69030;SDS011;56083;48.774;8.942;2023-07-31T09:03:15;10.18;;;2.70;;
69030;SDS011;56083;48.774;8.942;2023-07-31T09:05:43;7.38;;;2.83;;
69030;SDS011;56083;48.774;8.942;2023-07-31T09:08:11;10.77;;;2.53;;
69030;SDS011;56083;48.774;8.942;2023-07-31T09:10:41;9.27;;;2.35;;
69030;SDS011;56083;48.774;8.942;2023-07-31T09:13:08;8.05;;;2.40;;
69030;SDS011;56083;48.774;8.942;2023-07-31T09:15:35;7.93;;;2.67;;
69030;SDS011;56083;48.774;8.942;2023-07-31T09:18:03;5.95;;;2.22;;
69030;SDS011;56083;48.774;8.942;2023-07-31T09:20:30;7.57;;;2.53;;
69030;SDS011;56083;48.774;8.942;2023-07-31T09:22:57;12.45;;;2.60;;
69030;SDS011;56083;48.774;8.942;2023-07-31T09:25:34;10.15;;;2.80;;
69030;SDS011;56083;48.774;8.942;2023-07-31T09:28:00;11.30;;;2.58;;
69030;SDS011;56083;48.774;8.942;2023-07-31T09:30:28;7.03;;;2.45;;
69030;SDS011;56083;48.774;8.942;2023-07-31T09:33:03;7.63;;;3.03;;
69030;SDS011;56083;48.774;8.942;2023-07-31T09:35:34;12.75;;;2.80;;
69030;SDS011;56083;48.774;8.942;2023-07-31T09:40:30;7.78;;;2.67;;
69030;SDS011;56083;48.774;8.942;2023-07-31T09:42:58;7.28;;;2.20;;
69030;SDS011;56083;48.774;8.942;2023-07-31T09:45:28;12.00;;;2.53;;
69030;SDS011;56083;48.774;8.942;2023-07-31T09:47:54;10.20;;;2.67;;
69030;SDS011;56083;48.774;8.942;2023-07-31T09:50:22;10.65;;;2.97;;
69030;SDS011;56083;48.774;8.942;2023-07-31T09:52:49;9.02;;;2.80;;
69030;SDS011;56083;48.774;8.942;2023-07-31T09:55:16;11.98;;;2.45;;
69030;SDS011;56083;48.774;8.942;2023-07-31T09:57:44;8.10;;;2.50;;
69030;SDS011;56083;48.774;8.942;2023-07-31T10:00:12;9.02;;;2.97;;
69030;SDS011;56083;48.774;8.942;2023-07-31T10:02:40;7.95;;;2.85;;
69030;SDS011;56083;48.774;8.942;2023-07-31T10:05:07;6.90;;;2.47;;
69030;SDS011;56083;48.774;8.942;2023-07-31T10:07:36;8.95;;;2.40;;
69030;SDS011;56083;48.774;8.942;2023-07-31T10:10:06;5.57;;;2.38;;
69030;SDS011;56083;48.774;8.942;2023-07-31T10:12:37;9.18;;;2.95;;
69030;SDS011;56083;48.774;8.942;2023-07-31T10:15:04;9.52;;;2.78;;
69030;SDS011;56083;48.774;8.942;2023-07-31T10:17:30;8.88;;;2.83;;
69030;SDS011;56083;48.774;8.942;2023-07-31T10:19:59;7.60;;;2.45;;
69030;SDS011;56083;48.774;8.942;2023-07-31T10:22:30;8.32;;;2.78;;
69030;SDS011;56083;48.774;8.942;2023-07-31T10:24:57;7.47;;;2.63;;
69030;SDS011;56083;48.774;8.942;2023-07-31T10:27:24;5.80;;;2.58;;
69030;SDS011;56083;48.774;8.942;2023-07-31T10:29:49;8.35;;;3.05;;
69030;SDS011;56083;48.774;8.942;2023-07-31T10:32:17;6.65;;;2.75;;
69030;SDS011;56083;48.774;8.942;2023-07-31T10:34:43;7.18;;;2.95;;
69030;SDS011;56083;48.774;8.942;2023-07-31T10:37:28;8.25;;;3.05;;
69030;SDS011;56083;48.774;8.942;2023-07-31T10:45:04;9.93;;;3.10;;
69030;SDS011;56083;48.774;8.942;2023-07-31T10:47:37;5.95;;;2.50;;
69030;SDS011;56083;48.774;8.942;2023-07-31T10:50:20;10.20;;;3.10;;
69030;SDS011;56083;48.774;8.942;2023-07-31T10:52:47;6.70;;;2.80;;
69030;SDS011;56083;48.774;8.942;2023-07-31T10:58:09;5.45;;;2.60;;
69030;SDS011;56083;48.774;8.942;2023-07-31T11:00:40;8.63;;;2.60;;
69030;SDS011;56083;48.774;8.942;2023-07-31T11:03:10;6.75;;;2.60;;
69030;SDS011;56083;48.774;8.942;2023-07-31T11:05:45;6.63;;;2.90;;
69030;SDS011;56083;48.774;8.942;2023-07-31T11:08:14;11.25;;;3.00;;
69030;SDS011;56083;48.774;8.942;2023-07-31T11:10:45;6.22;;;2.78;;
69030;SDS011;56083;48.774;8.942;2023-07-31T11:13:12;10.57;;;2.97;;
69030;SDS011;56083;48.774;8.942;2023-07-31T11:15:39;10.23;;;3.00;;
69030;SDS011;56083;48.774;8.942;2023-07-31T11:18:04;8.73;;;2.90;;
69030;SDS011;56083;48.774;8.942;2023-07-31T11:20:34;6.82;;;2.85;;
69030;SDS011;56083;48.774;8.942;2023-07-31T11:23:01;6.38;;;2.90;;
69030;SDS011;56083;48.774;8.942;2023-07-31T11:25:31;8.05;;;2.97;;
69030;SDS011;56083;48.774;8.942;2023-07-31T11:27:57;14.07;;;3.28;;
69030;SDS011;56083;48.774;8.942;2023-07-31T11:30:29;6.53;;;3.40;;
69030;SDS011;56083;48.774;8.942;2023-07-31T11:32:55;8.40;;;3.13;;
69030;SDS011;56083;48.774;8.942;2023-07-31T11:35:21;8.25;;;3.28;;
69030;SDS011;56083;48.774;8.942;2023-07-31T11:37:47;7.78;;;3.25;;
69030;SDS011;56083;48.774;8.942;2023-07-31T11:40:13;12.38;;;3.40;;
69030;SDS011;56083;48.774;8.942;2023-07-31T11:42:39;6.88;;;3.33;;
69030;SDS011;56083;48.774;8.942;2023-07-31T11:45:06;6.72;;;2.80;;
69030;SDS011;56083;48.774;8.942;2023-07-31T11:47:33;8.90;;;2.92;;
69030;SDS011;56083;48.774;8.942;2023-07-31T11:50:00;6.80;;;3.05;;
69030;SDS011;56083;48.774;8.942;2023-07-31T11:52:27;7.53;;;2.80;;
69030;SDS011;56083;48.774;8.942;2023-07-31T11:54:55;7.72;;;3.15;;
69030;SDS011;56083;48.774;8.942;2023-07-31T11:57:21;10.15;;;3.33;;
69030;SDS011;56083;48.774;8.942;2023-07-31T11:59:47;9.48;;;3.55;;
69030;SDS011;56083;48.774;8.942;2023-07-31T12:02:13;10.98;;;3.00;;
69030;SDS011;56083;48.774;8.942;2023-07-31T12:04:39;8.48;;;3.10;;
69030;SDS011;56083;48.774;8.942;2023-07-31T12:07:05;5.22;;;2.83;;
69030;SDS011;56083;48.774;8.942;2023-07-31T12:09:31;8.80;;;3.33;;
69030;SDS011;56083;48.774;8.942;2023-07-31T12:11:56;12.02;;;3.28;;
69030;SDS011;56083;48.774;8.942;2023-07-31T12:16:54;8.80;;;3.05;;
69030;SDS011;56083;48.774;8.942;2023-07-31T12:19:21;9.00;;;3.42;;
69030;SDS011;56083;48.774;8.942;2023-07-31T12:21:47;9.48;;;3.33;;
69030;SDS011;56083;48.774;8.942;2023-07-31T12:24:14;7.13;;;2.65;;
69030;SDS011;56083;48.774;8.942;2023-07-31T12:26:45;9.25;;;3.00;;
69030;SDS011;56083;48.774;8.942;2023-07-31T12:29:14;6.82;;;3.00;;
69030;SDS011;56083;48.774;8.942;2023-07-31T12:31:43;10.43;;;3.20;;
69030;SDS011;56083;48.774;8.942;2023-07-31T12:34:15;7.65;;;2.78;;
69030;SDS011;56083;48.774;8.942;2023-07-31T12:36:46;9.77;;;2.85;;
69030;SDS011;56083;48.774;8.942;2023-07-31T12:39:14;8.50;;;2.78;;
69030;SDS011;56083;48.774;8.942;2023-07-31T12:41:40;8.30;;;3.05;;
69030;SDS011;56083;48.774;8.942;2023-07-31T12:44:05;12.25;;;3.38;;
69030;SDS011;56083;48.774;8.942;2023-07-31T12:46:31;8.18;;;2.80;;
69030;SDS011;56083;48.774;8.942;2023-07-31T12:48:57;6.90;;;2.67;;
69030;SDS011;56083;48.774;8.942;2023-07-31T12:51:22;5.72;;;2.53;;
69030;SDS011;56083;48.774;8.942;2023-07-31T12:53:48;6.97;;;2.60;;
69030;SDS011;56083;48.774;8.942;2023-07-31T12:56:13;5.65;;;2.60;;
69030;SDS011;56083;48.774;8.942;2023-07-31T12:58:39;7.20;;;2.90;;
69030;SDS011;56083;48.774;8.942;2023-07-31T13:01:05;8.05;;;2.88;;
69030;SDS011;56083;48.774;8.942;2023-07-31T13:03:31;6.40;;;2.38;;
69030;SDS011;56083;48.774;8.942;2023-07-31T13:05:57;4.65;;;2.30;;
69030;SDS011;56083;48.774;8.942;2023-07-31T13:08:22;9.43;;;2.80;;
69030;SDS011;56083;48.774;8.942;2023-07-31T13:10:48;5.72;;;2.20;;
69030;SDS011;56083;48.774;8.942;2023-07-31T13:13:13;7.53;;;2.60;;
69030;SDS011;56083;48.774;8.942;2023-07-31T13:15:39;8.80;;;2.60;;
69030;SDS011;56083;48.774;8.942;2023-07-31T13:18:05;10.60;;;2.72;;
69030;SDS011;56083;48.774;8.942;2023-07-31T13:20:30;7.65;;;2.67;;
69030;SDS011;56083;48.774;8.942;2023-07-31T13:22:56;6.82;;;2.53;;
69030;SDS011;56083;48.774;8.942;2023-07-31T13:25:22;8.38;;;2.40;;
69030;SDS011;56083;48.774;8.942;2023-07-31T13:27:47;8.85;;;2.60;;
69030;SDS011;56083;48.774;8.942;2023-07-31T13:30:13;5.28;;;2.50;;
69030;SDS011;56083;48.774;8.942;2023-07-31T13:32:40;6.82;;;2.45;;
69030;SDS011;56083;48.774;8.942;2023-07-31T13:35:06;5.97;;;2.20;;
69030;SDS011;56083;48.774;8.942;2023-07-31T13:37:33;5.13;;;2.30;;
69030;SDS011;56083;48.774;8.942;2023-07-31T13:39:59;6.57;;;2.60;;
69030;SDS011;56083;48.774;8.942;2023-07-31T13:42:25;7.22;;;2.70;;
69030;SDS011;56083;48.774;8.942;2023-07-31T13:44:51;9.07;;;2.60;;
69030;SDS011;56083;48.774;8.942;2023-07-31T13:47:17;6.10;;;2.60;;
69030;SDS011;56083;48.774;8.942;2023-07-31T13:49:43;11.57;;;2.80;;
69030;SDS011;56083;48.774;8.942;2023-07-31T13:52:09;5.10;;;2.50;;
69030;SDS011;56083;48.774;8.942;2023-07-31T13:54:34;7.45;;;2.72;;
69030;SDS011;56083;48.774;8.942;2023-07-31T13:57:00;5.47;;;2.83;;
69030;SDS011;56083;48.774;8.942;2023-07-31T13:59:25;6.95;;;2.60;;
69030;SDS011;56083;48.774;8.942;2023-07-31T14:01:51;7.55;;;2.78;;
69030;SDS011;56083;48.774;8.942;2023-07-31T14:04:17;8.75;;;3.00;;
69030;SDS011;56083;48.774;8.942;2023-07-31T14:06:43;7.00;;;2.65;;
69030;SDS011;56083;48.774;8.942;2023-07-31T14:09:09;9.15;;;2.30;;
69030;SDS011;56083;48.774;8.942;2023-07-31T14:11:34;8.75;;;2.97;;
69030;SDS011;56083;48.774;8.942;2023-07-31T14:14:00;6.88;;;2.70;;
69030;SDS011;56083;48.774;8.942;2023-07-31T14:16:29;8.63;;;2.88;;
69030;SDS011;56083;48.774;8.942;2023-07-31T14:18:55;9.45;;;2.90;;
69030;SDS011;56083;48.774;8.942;2023-07-31T14:21:20;9.45;;;2.88;;
69030;SDS011;56083;48.774;8.942;2023-07-31T14:23:46;8.48;;;2.70;;
69030;SDS011;56083;48.774;8.942;2023-07-31T14:26:12;6.75;;;2.67;;
69030;SDS011;56083;48.774;8.942;2023-07-31T14:28:37;10.45;;;2.40;;
69030;SDS011;56083;48.774;8.942;2023-07-31T14:31:03;6.55;;;2.97;;
69030;SDS011;56083;48.774;8.942;2023-07-31T14:33:29;6.55;;;2.70;;
69030;SDS011;56083;48.774;8.942;2023-07-31T14:35:55;4.72;;;2.35;;
69030;SDS011;56083;48.774;8.942;2023-07-31T14:38:20;7.72;;;2.88;;
69030;SDS011;56083;48.774;8.942;2023-07-31T14:40:46;8.82;;;2.80;;
69030;SDS011;56083;48.774;8.942;2023-07-31T14:43:12;5.85;;;2.78;;
69030;SDS011;56083;48.774;8.942;2023-07-31T14:45:37;4.95;;;2.40;;
69030;SDS011;56083;48.774;8.942;2023-07-31T14:48:03;6.70;;;2.63;;
69030;SDS011;56083;48.774;8.942;2023-07-31T14:50:29;6.88;;;2.53;;
69030;SDS011;56083;48.774;8.942;2023-07-31T14:52:54;6.70;;;2.30;;
69030;SDS011;56083;48.774;8.942;2023-07-31T14:55:20;5.97;;;2.50;;
69030;SDS011;56083;48.774;8.942;2023-07-31T14:57:46;4.43;;;2.35;;
69030;SDS011;56083;48.774;8.942;2023-07-31T15:00:13;5.78;;;2.50;;